Main page
METAR-TAF:

METAR-TAF

Airports :

Mariehamn Airport

Mariehamn, Finland

latitude: 60-07N, longitude: 019-54E, elevation: 6 m

Current weather observation

The report was made 31 minutes ago, at 22:20 UTC
Wind 3 kt from the North/Northeast, varying between North/Northwest and Northeast
Temperature 2°C
Humidity 80%
Pressure 1034 hPa
Visibility 10 km or more
Overcast at a height of 1400 ft

METAR: EFMA 202220Z AUTO 02003KT 330V040 9999 OVC014 02/M01 Q1034

Time: 00:51 (22:51 UTC)

Forecast

The report was made 1 hour and 10 minutes ago, at 21:41 UTC
Forecast valid from 20 at 21 UTC to 21 at 06 UTC
Wind 5 kt from the East/Northeast
Visibility 10 km or more
Broken clouds at a height of 1500 ft
Temporary
from 20 at 21 UTC to 21 at 06 UTC
Visibility: 6000 m
Broken clouds at a height of 1000 ft

TAF: EFMA 202141Z 2021/2106 07005KT 9999 BKN015 TEMPO 2021/2106 6000 BKN010

Weather observations and forecasts of more than 4000 airports (METAR and TAF reports).

The available stations are represented by yellow and red dots on the map.

Hover mouse over dot to see the name of the station.

Then click to see weather observations and forecasts.

To change the map : click on the green buttons with a black cross to zoom in, on the green button with a dash to zoom out, or on the green arrows for adjacent maps.


METAR-TAF: